Time;durP1;ratioP1;P1;durP2;ratioP2;P2;SDS_P1;SDS_P2;PMS_P1;PMS_P2;Temp;Humidity;BMP_temperature;BMP_pressure;BME280_temperature;BME280_humidity;BME280_pressure;Samples;Min_cycle;Max_cycle;Signal;HPM_P1;HPM_P2
2024/05/01 00:00:09;;;;;;;9.93;2.78;;;;;;;15.68;65.06;95605.41;5341310;26;20053;-61
2024/05/01 00:02:34;;;;;;;4.85;2.72;;;;;;;15.67;63.82;95587.09;5342037;26;20021;-61
2024/05/01 00:04:59;;;;;;;13.10;2.97;;;;;;;15.53;64.63;95587.88;5341195;26;20130;-61
2024/05/01 00:07:25;;;;;;;6.05;2.85;;;;;;;15.25;66.19;95587.13;5341337;26;20017;-61
2024/05/01 00:09:50;;;;;;;9.50;3.00;;;;;;;15.17;67.09;95579.03;5339042;26;20037;-61
2024/05/01 00:12:15;;;;;;;5.82;2.90;;;;;;;15.25;67.23;95581.00;5342251;26;20060;-61
2024/05/01 00:14:41;;;;;;;5.20;2.70;;;;;;;15.38;67.00;95582.88;5343753;26;20686;-61
2024/05/01 00:17:06;;;;;;;7.55;3.10;;;;;;;15.39;65.23;95581.78;5339256;26;20048;-61
2024/05/01 00:19:31;;;;;;;6.80;2.60;;;;;;;15.49;65.85;95581.56;5336900;26;20017;-61
2024/05/01 00:21:56;;;;;;;12.40;3.00;;;;;;;15.45;65.92;95579.81;5339127;26;20411;-61
2024/05/01 00:24:22;;;;;;;6.03;2.47;;;;;;;15.20;67.81;95583.78;5346301;26;20005;-61
2024/05/01 00:26:47;;;;;;;12.82;2.85;;;;;;;15.40;64.62;95588.66;5339499;26;20443;-61
2024/05/01 00:29:15;;;;;;;9.37;3.40;;;;;;;14.96;67.97;95579.47;5338948;26;20533;-61
2024/05/01 00:31:40;;;;;;;7.82;2.65;;;;;;;14.70;69.05;95588.97;5335388;26;20824;-61
2024/05/01 00:34:05;;;;;;;5.43;2.88;;;;;;;14.68;68.18;95580.53;5339442;26;20079;-61
2024/05/01 00:36:38;;;;;;;6.00;2.65;;;;;;;14.73;69.86;95591.03;5338274;26;20082;-61
2024/05/01 00:39:03;;;;;;;5.10;2.67;;;;;;;14.84;69.97;95576.47;5336806;26;20049;-61
2024/05/01 00:41:29;;;;;;;4.65;2.42;;;;;;;15.05;68.32;95577.69;5337851;26;20009;-61
2024/05/01 00:43:54;;;;;;;7.78;2.90;;;;;;;15.18;67.46;95569.97;5338386;26;20449;-61
2024/05/01 00:46:20;;;;;;;11.48;3.03;;;;;;;15.28;66.65;95575.91;5338550;26;20040;-61
2024/05/01 00:48:46;;;;;;;11.75;3.25;;;;;;;15.39;66.28;95573.81;5336173;26;20023;-61
2024/05/01 00:51:12;;;;;;;10.73;2.47;;;;;;;15.31;65.89;95571.84;5337544;26;20005;-61
2024/05/01 00:53:37;;;;;;;9.77;3.83;;;;;;;15.28;66.44;95575.09;5337638;26;20017;-61
2024/05/01 00:56:04;;;;;;;7.18;2.90;;;;;;;15.37;66.37;95573.31;5339731;26;20023;-61
2024/05/01 00:58:30;;;;;;;11.20;2.83;;;;;;;15.33;65.41;95567.00;5338016;26;20028;-61
2024/05/01 01:00:55;;;;;;;5.90;2.53;;;;;;;15.14;66.01;95569.81;5337391;26;20023;-61
2024/05/01 01:03:22;;;;;;;11.10;3.38;;;;;;;14.85;66.46;95562.13;5338079;26;20005;-61
2024/05/01 01:05:48;;;;;;;6.65;3.00;;;;;;;14.74;66.73;95566.06;5336201;26;20488;-61
2024/05/01 01:08:16;;;;;;;6.70;2.75;;;;;;;14.56;69.06;95554.44;5335244;26;20778;-61
2024/05/01 01:10:42;;;;;;;9.43;4.03;;;;;;;14.94;66.71;95557.69;5335905;26;20016;-61
2024/05/01 01:13:07;;;;;;;6.82;3.67;;;;;;;15.05;65.04;95551.13;5336562;26;20427;-61
2024/05/01 01:15:32;;;;;;;5.35;3.00;;;;;;;15.09;66.87;95554.75;5337988;26;20087;-61
2024/05/01 01:17:58;;;;;;;7.45;2.92;;;;;;;15.34;64.80;95547.34;5338242;26;20009;-61
2024/05/01 01:20:23;;;;;;;4.18;2.45;;;;;;;15.40;64.04;95540.81;5336660;26;20024;-61
2024/05/01 01:22:48;;;;;;;8.73;3.23;;;;;;;15.41;64.65;95531.75;5337890;26;20009;-61
2024/05/01 01:25:14;;;;;;;14.10;2.88;;;;;;;15.44;62.43;95546.31;5338388;26;20239;-61
2024/05/01 01:27:39;;;;;;;16.52;3.67;;;;;;;15.59;63.03;95549.44;5338812;26;20025;-61
2024/05/01 01:30:07;;;;;;;6.70;2.88;;;;;;;15.51;63.96;95544.81;5337646;26;20085;-61
2024/05/01 01:32:33;;;;;;;5.80;2.83;;;;;;;15.43;63.60;95545.53;5336783;26;20032;-61
2024/05/01 01:34:58;;;;;;;8.93;3.33;;;;;;;15.46;62.33;95538.81;5337779;26;20004;-61
2024/05/01 01:37:23;;;;;;;20.27;3.20;;;;;;;15.44;62.55;95536.47;5337037;26;20052;-61
2024/05/01 01:39:49;;;;;;;22.70;3.75;;;;;;;15.49;60.90;95539.03;5336969;26;20013;-61
2024/05/01 01:42:14;;;;;;;7.55;3.10;;;;;;;15.71;60.78;95540.16;5335472;26;20028;-61
2024/05/01 01:44:39;;;;;;;10.90;3.38;;;;;;;15.76;61.24;95542.69;5333863;26;20000;-61
2024/05/01 01:47:04;;;;;;;7.07;2.80;;;;;;;15.76;61.38;95532.06;5337108;26;20009;-61
2024/05/01 01:49:30;;;;;;;5.07;3.17;;;;;;;15.67;61.48;95534.66;5337851;26;20767;-61
2024/05/01 01:51:55;;;;;;;10.70;3.10;;;;;;;15.52;61.49;95535.78;5335729;26;20468;-61
2024/05/01 01:54:20;;;;;;;6.60;3.00;;;;;;;15.44;62.48;95538.34;5334851;26;20325;-61
2024/05/01 01:56:46;;;;;;;11.23;3.38;;;;;;;15.59;61.70;95524.72;5336857;26;20535;-61
2024/05/01 01:59:13;;;;;;;8.35;3.40;;;;;;;15.61;61.91;95530.50;5337145;26;20063;-61
2024/05/01 02:01:38;;;;;;;5.13;3.00;;;;;;;15.87;60.54;95520.09;5336728;26;20021;-61
2024/05/01 02:04:04;;;;;;;5.72;2.58;;;;;;;15.85;61.32;95517.72;5338500;26;20108;-61
2024/05/01 02:06:29;;;;;;;7.10;2.53;;;;;;;15.83;59.81;95521.78;5336927;26;20024;-61
2024/05/01 02:08:54;;;;;;;9.57;2.65;;;;;;;15.79;62.10;95521.59;5337777;26;20009;-61
2024/05/01 02:11:20;;;;;;;9.97;3.63;;;;;;;15.71;59.79;95514.34;5338156;26;20028;-61
2024/05/01 02:13:45;;;;;;;4.15;2.58;;;;;;;15.78;60.86;95520.03;5335945;26;20304;-61
2024/05/01 02:16:11;;;;;;;10.35;2.85;;;;;;;15.71;62.19;95513.56;5339054;26;20065;-61
2024/05/01 02:18:37;;;;;;;5.03;2.03;;;;;;;15.68;60.98;95511.53;5338217;26;20027;-61
2024/05/01 02:21:03;;;;;;;3.35;2.45;;;;;;;15.74;61.29;95523.59;5333615;26;20009;-61
2024/05/01 02:23:28;;;;;;;6.38;2.42;;;;;;;15.61;60.64;95510.00;5338383;26;20023;-61
2024/05/01 02:25:53;;;;;;;8.57;2.50;;;;;;;15.76;60.73;95508.13;5338759;26;20013;-60
2024/05/01 02:28:19;;;;;;;7.67;2.50;;;;;;;15.53;61.23;95505.44;5337924;26;20009;-61
2024/05/01 02:30:44;;;;;;;6.28;2.38;;;;;;;15.74;61.85;95508.44;5333319;26;20267;-61
2024/05/01 02:33:11;;;;;;;4.80;2.60;;;;;;;15.65;60.30;95502.25;5337177;26;20013;-61
2024/05/01 02:35:36;;;;;;;4.78;2.22;;;;;;;15.74;60.82;95502.31;5337700;26;20744;-61
2024/05/01 02:38:02;;;;;;;6.45;2.65;;;;;;;15.65;60.69;95504.91;5337220;26;20005;-61
2024/05/01 02:40:27;;;;;;;3.40;2.00;;;;;;;15.67;60.35;95497.44;5338566;26;20027;-61
2024/05/01 02:42:52;;;;;;;2.72;2.20;;;;;;;15.64;61.40;95496.16;5338387;26;20033;-61
2024/05/01 02:45:18;;;;;;;7.00;2.38;;;;;;;15.42;61.78;95506.72;5337785;26;20024;-61
2024/05/01 02:47:43;;;;;;;4.65;2.42;;;;;;;15.36;61.73;95497.31;5339094;26;20058;-61
2024/05/01 02:50:08;;;;;;;10.80;2.58;;;;;;;15.24;60.84;95499.72;5336751;26;20029;-61
2024/05/01 02:52:33;;;;;;;6.18;2.55;;;;;;;15.47;61.41;95500.50;5339925;26;20004;-61
2024/05/01 02:54:59;;;;;;;7.40;2.30;;;;;;;15.47;61.29;95497.84;5338027;26;20056;-61
2024/05/01 02:57:24;;;;;;;5.85;2.13;;;;;;;15.23;61.11;95492.81;5339235;26;20009;-60
2024/05/01 02:59:49;;;;;;;4.32;2.30;;;;;;;15.37;62.02;95493.56;5310029;26;20023;-61
2024/05/01 03:02:15;;;;;;;4.68;2.20;;;;;;;15.37;62.47;95499.66;5338331;26;20104;-60
2024/05/01 03:04:40;;;;;;;2.92;2.25;;;;;;;15.24;61.13;95494.41;5330223;26;20084;-61
2024/05/01 03:07:06;;;;;;;4.10;2.15;;;;;;;15.24;61.29;95489.88;5338827;26;20009;-61
2024/05/01 03:09:31;;;;;;;4.32;2.22;;;;;;;15.05;62.67;95490.00;5342608;26;20005;-61
2024/05/01 03:11:57;;;;;;;5.03;2.20;;;;;;;15.14;61.19;95488.22;5335393;26;20009;-61
2024/05/01 03:14:22;;;;;;;3.25;2.17;;;;;;;15.39;61.16;95496.72;5341814;26;20023;-61
2024/05/01 03:16:47;;;;;;;4.90;2.33;;;;;;;15.33;61.55;95492.56;5342247;26;20028;-61
2024/05/01 03:19:12;;;;;;;4.73;1.97;;;;;;;15.38;61.60;95487.19;5342030;26;20041;-61
2024/05/01 03:21:42;;;;;;;4.43;2.22;;;;;;;15.10;62.25;95489.09;5334607;26;20702;-61
2024/05/01 03:24:07;;;;;;;3.20;1.85;;;;;;;15.22;63.05;95483.25;5337079;26;20017;-61
2024/05/01 03:26:33;;;;;;;12.57;3.33;;;;;;;15.13;62.76;95488.50;5342099;26;20025;-61
2024/05/01 03:28:58;;;;;;;3.00;1.80;;;;;;;15.10;61.54;95489.09;5339580;26;20040;-61
2024/05/01 03:31:23;;;;;;;4.63;2.22;;;;;;;15.10;62.80;95484.56;5342792;26;20596;-61
2024/05/01 03:33:49;;;;;;;7.40;2.10;;;;;;;15.04;62.52;95482.31;5340172;26;20359;-61
2024/05/01 03:36:14;;;;;;;4.38;1.63;;;;;;;15.10;62.47;95484.56;5341226;26;20056;-61
2024/05/01 03:38:40;;;;;;;2.83;2.05;;;;;;;15.06;62.02;95480.16;5339060;26;20519;-61
2024/05/01 03:41:05;;;;;;;3.08;2.22;;;;;;;14.75;62.54;95477.34;5337641;26;20019;-61
2024/05/01 03:43:30;;;;;;;6.88;2.42;;;;;;;14.69;63.45;95474.00;5341340;26;20083;-61
2024/05/01 03:45:56;;;;;;;3.38;1.98;;;;;;;14.48;63.62;95473.63;5340525;26;20443;-61
2024/05/01 03:48:21;;;;;;;2.78;1.70;;;;;;;14.62;63.17;95469.09;5340950;26;20018;-61
2024/05/01 03:50:47;;;;;;;6.95;2.15;;;;;;;14.66;62.96;95469.28;5341762;26;20037;-60
2024/05/01 03:53:12;;;;;;;1.85;1.63;;;;;;;14.61;62.86;95464.88;5337407;26;20009;-61
2024/05/01 03:55:38;;;;;;;4.00;2.35;;;;;;;14.57;64.76;95466.53;5340430;26;20021;-61
2024/05/01 03:58:03;;;;;;;4.18;2.17;;;;;;;14.60;64.14;95465.94;5341589;26;20441;-61
2024/05/01 04:00:29;;;;;;;2.90;1.88;;;;;;;14.74;63.73;95465.94;5341861;26;20036;-61
2024/05/01 04:02:56;;;;;;;2.70;2.20;;;;;;;14.57;63.51;95463.88;5339192;26;20016;-61
2024/05/01 04:05:22;;;;;;;2.97;1.98;;;;;;;14.59;63.74;95458.28;5335521;26;20005;-61
2024/05/01 04:07:47;;;;;;;3.47;2.42;;;;;;;14.80;63.42;95461.28;5332531;26;20024;-61
2024/05/01 04:10:13;;;;;;;3.10;2.15;;;;;;;14.86;63.10;95462.78;5340562;26;20012;-61
2024/05/01 04:12:38;;;;;;;2.75;1.80;;;;;;;14.78;62.35;95456.28;5340981;26;20009;-61
2024/05/01 04:15:04;;;;;;;2.47;2.28;;;;;;;14.84;62.75;95459.63;5336166;26;20081;-61
2024/05/01 04:17:30;;;;;;;4.32;2.05;;;;;;;14.91;62.55;95462.66;5341681;26;20008;-60
2024/05/01 04:19:55;;;;;;;3.28;2.05;;;;;;;14.86;61.83;95452.94;5339866;26;20031;-60
2024/05/01 04:22:21;;;;;;;3.38;2.13;;;;;;;14.79;62.89;95457.06;5339950;26;20086;-60
2024/05/01 04:24:46;;;;;;;2.95;2.22;;;;;;;15.00;61.74;95460.88;5341289;26;20017;-61
2024/05/01 04:27:11;;;;;;;3.10;1.85;;;;;;;15.03;61.65;95460.28;5339656;26;20467;-60
2024/05/01 04:29:36;;;;;;;3.65;2.47;;;;;;;14.98;62.14;95457.72;5341802;26;20624;-61
2024/05/01 04:32:02;;;;;;;2.47;1.98;;;;;;;15.15;61.43;95449.13;5339719;26;20019;-61
2024/05/01 04:34:27;;;;;;;3.08;2.10;;;;;;;15.26;61.88;95449.69;5341365;26;20809;-61
2024/05/01 04:36:53;;;;;;;2.20;1.80;;;;;;;15.12;61.92;95447.84;5338876;26;20009;-61
2024/05/01 04:39:18;;;;;;;3.10;2.08;;;;;;;15.06;62.59;95445.63;5341478;26;20282;-61
2024/05/01 04:41:43;;;;;;;4.78;1.88;;;;;;;15.06;61.17;95445.63;5339627;26;20033;-60
2024/05/01 04:44:08;;;;;;;4.78;2.33;;;;;;;15.10;62.59;95447.38;5339903;26;20067;-61
2024/05/01 04:46:34;;;;;;;5.57;1.65;;;;;;;15.16;62.69;95452.56;5335683;26;20468;-61
2024/05/01 04:48:59;;;;;;;2.78;1.92;;;;;;;15.14;62.78;95453.66;5337492;26;20017;-61
2024/05/01 04:51:24;;;;;;;3.70;2.38;;;;;;;15.26;62.94;95449.69;5340901;26;20020;-61
2024/05/01 04:53:50;;;;;;;4.18;2.47;;;;;;;15.23;62.89;95445.75;5332432;26;20333;-61
2024/05/01 04:56:15;;;;;;;2.55;1.88;;;;;;;15.24;62.56;95449.22;5339997;26;22375;-60
2024/05/01 04:58:40;;;;;;;2.80;2.10;;;;;;;15.22;62.61;95451.38;5331477;26;20005;-61
2024/05/01 05:01:05;;;;;;;6.07;2.37;;;;;;;15.11;63.16;95445.50;5338344;26;21065;-61
2024/05/01 05:03:31;;;;;;;3.23;2.10;;;;;;;15.08;64.87;95452.19;5339288;26;20251;-61
2024/05/01 05:05:56;;;;;;;4.63;2.23;;;;;;;14.96;63.02;95449.28;5339417;26;20247;-61
2024/05/01 05:08:21;;;;;;;4.53;2.45;;;;;;;15.32;63.28;95451.13;5337325;26;20837;-61
2024/05/01 05:10:46;;;;;;;4.20;2.50;;;;;;;15.37;61.06;95445.69;5367051;26;20009;-61
2024/05/01 05:13:12;;;;;;;4.22;1.98;;;;;;;15.61;62.16;95440.88;5339971;26;20251;-61
2024/05/01 05:15:37;;;;;;;2.38;1.77;;;;;;;15.76;61.12;95449.59;5340378;26;20017;-60
2024/05/01 05:18:03;;;;;;;3.23;1.77;;;;;;;15.84;60.61;95443.56;5338764;26;20020;-61
2024/05/01 05:20:28;;;;;;;4.05;2.13;;;;;;;15.89;59.23;95440.75;5339344;26;20239;-61
2024/05/01 05:22:54;;;;;;;3.70;2.28;;;;;;;15.76;60.55;95441.63;5337628;26;20013;-61
2024/05/01 05:25:19;;;;;;;4.40;2.03;;;;;;;15.97;61.36;95437.38;5340360;26;20028;-61
2024/05/01 05:27:45;;;;;;;3.17;1.85;;;;;;;16.08;58.80;95429.91;5341405;26;20009;-61
2024/05/01 05:30:10;;;;;;;2.42;2.15;;;;;;;16.24;60.46;95435.59;5339861;26;20382;-61
2024/05/01 05:32:36;;;;;;;4.07;2.38;;;;;;;16.10;59.97;95431.19;5333407;26;20012;-61
2024/05/01 05:35:02;;;;;;;4.35;2.15;;;;;;;16.28;59.04;95423.25;5340042;26;20008;-61
2024/05/01 05:37:27;;;;;;;2.60;2.13;;;;;;;16.32;60.12;95418.88;5342883;26;20016;-61
2024/05/01 05:39:53;;;;;;;14.27;2.30;;;;;;;16.47;58.96;95413.13;5337711;26;20009;-61
2024/05/01 05:42:18;;;;;;;4.45;2.03;;;;;;;16.70;58.38;95402.38;5340649;26;20455;-61
2024/05/01 05:44:43;;;;;;;5.43;2.20;;;;;;;16.68;59.92;95408.03;5341684;26;20009;-61
2024/05/01 05:47:09;;;;;;;5.97;2.47;;;;;;;16.81;60.30;95409.00;5337895;26;20086;-61
2024/05/01 05:49:35;;;;;;;4.22;1.80;;;;;;;16.95;58.45;95414.97;5341167;26;20473;-60
2024/05/01 05:52:01;;;;;;;3.65;2.03;;;;;;;16.71;57.59;95411.94;5336354;26;20009;-61
2024/05/01 05:54:26;;;;;;;3.42;2.28;;;;;;;16.95;57.96;95417.66;5335193;26;20345;-61
2024/05/01 05:56:52;;;;;;;2.67;1.70;;;;;;;16.81;57.09;95409.00;5338672;26;20020;-61
2024/05/01 05:59:17;;;;;;;6.57;2.40;;;;;;;16.94;55.60;95400.09;5339844;26;20012;-61
2024/05/01 06:01:43;;;;;;;4.72;2.15;;;;;;;16.80;55.99;95405.56;5339288;26;20986;-61
2024/05/01 06:04:08;;;;;;;4.93;2.30;;;;;;;16.95;56.13;95399.00;5339401;26;20087;-61
2024/05/01 06:06:33;;;;;;;2.88;1.98;;;;;;;16.76;56.77;95401.16;5338989;26;20459;-61
2024/05/01 06:08:58;;;;;;;3.92;1.95;;;;;;;17.16;56.65;95397.28;5333698;26;20009;-61
2024/05/01 06:11:24;;;;;;;2.95;2.20;;;;;;;17.05;56.88;95396.00;5339764;26;20013;-61
2024/05/01 06:13:49;;;;;;;2.78;2.10;;;;;;;16.89;56.15;95394.91;5338573;26;20406;-61
2024/05/01 06:16:14;;;;;;;2.83;1.77;;;;;;;17.08;57.52;95395.41;5339512;26;20015;-61
2024/05/01 06:18:40;;;;;;;2.60;1.87;;;;;;;16.94;56.85;95394.75;5339221;26;20013;-61
2024/05/01 06:21:06;;;;;;;2.97;2.10;;;;;;;17.34;56.61;95391.94;5339822;26;20295;-61
2024/05/01 06:23:31;;;;;;;3.88;2.42;;;;;;;17.30;56.06;95399.03;5333498;26;20755;-61
2024/05/01 06:25:57;;;;;;;3.53;1.88;;;;;;;17.72;55.22;95392.03;5332934;26;20017;-61
2024/05/01 06:28:22;;;;;;;3.70;1.95;;;;;;;17.85;55.37;95384.97;5337971;26;20023;-61
2024/05/01 06:30:48;;;;;;;5.30;2.05;;;;;;;17.66;55.67;95388.75;5339602;26;20001;-61
2024/05/01 06:33:13;;;;;;;3.78;2.00;;;;;;;17.91;54.21;95379.13;5339421;26;20023;-61
2024/05/01 06:35:38;;;;;;;2.73;2.00;;;;;;;17.76;54.27;95382.31;5340266;26;20015;-61
2024/05/01 06:38:04;;;;;;;4.05;2.03;;;;;;;17.81;54.54;95384.03;5336230;26;20358;-61
2024/05/01 06:40:29;;;;;;;4.65;2.30;;;;;;;17.83;55.59;95373.84;5342898;26;20410;-61
2024/05/01 06:42:54;;;;;;;2.43;1.73;;;;;;;17.96;53.40;95375.50;5341784;26;20064;-61
2024/05/01 06:45:20;;;;;;;6.03;2.30;;;;;;;17.87;55.01;95378.22;5340310;26;20243;-61
2024/05/01 06:47:45;;;;;;;5.07;2.10;;;;;;;17.71;54.84;95369.13;5343123;26;20240;-61
2024/05/01 06:50:10;;;;;;;4.97;2.40;;;;;;;18.04;55.48;95360.56;5333053;26;20598;-61
2024/05/01 06:52:35;;;;;;;6.25;1.85;;;;;;;18.08;55.65;95362.28;5336051;26;20009;-61
2024/05/01 06:55:01;;;;;;;3.80;2.40;;;;;;;18.12;54.50;95354.41;5336833;26;20049;-61
2024/05/01 06:57:26;;;;;;;3.10;1.92;;;;;;;18.18;55.42;95355.78;5342976;26;20009;-61
2024/05/01 06:59:51;;;;;;;2.72;1.77;;;;;;;18.56;54.73;95352.28;5340990;26;20504;-61
2024/05/01 07:02:17;;;;;;;2.90;1.90;;;;;;;18.73;52.60;95349.53;5339328;26;20094;-58
2024/05/01 07:04:42;;;;;;;3.33;2.00;;;;;;;19.02;52.53;95348.69;5343487;26;20251;-57
2024/05/01 07:07:07;;;;;;;3.35;1.85;;;;;;;19.22;52.85;95349.78;5338061;26;20448;-59
2024/05/01 07:09:33;;;;;;;3.65;2.08;;;;;;;19.34;51.73;95349.03;5342613;26;20017;-58
2024/05/01 07:11:58;;;;;;;3.15;1.73;;;;;;;19.59;52.22;95355.25;5341642;26;20460;-57
2024/05/01 07:14:23;;;;;;;4.88;2.33;;;;;;;19.72;51.31;95349.63;5342130;26;20009;-58
2024/05/01 07:16:48;;;;;;;3.13;2.47;;;;;;;19.96;51.82;95345.41;5340473;26;20020;-63
2024/05/01 07:19:14;;;;;;;4.37;1.67;;;;;;;19.87;49.97;95353.56;5339415;26;20873;-57
2024/05/01 07:21:39;;;;;;;3.05;1.98;;;;;;;19.94;49.68;95348.44;5340839;26;20270;-59
2024/05/01 07:24:04;;;;;;;4.00;2.22;;;;;;;20.06;50.09;95334.28;5342580;26;20078;-58
2024/05/01 07:26:30;;;;;;;6.10;2.40;;;;;;;20.30;49.65;95328.13;5341727;26;20013;-58
2024/05/01 07:28:55;;;;;;;9.05;2.33;;;;;;;19.75;51.18;95339.38;5342271;26;20005;-61
2024/05/01 07:31:20;;;;;;;3.70;2.28;;;;;;;19.84;50.35;95340.06;5335633;26;20574;-58
2024/05/01 07:33:46;;;;;;;4.13;2.08;;;;;;;20.17;50.46;95330.03;5341398;26;20004;-58
2024/05/01 07:36:11;;;;;;;4.75;2.10;;;;;;;20.16;50.30;95325.78;5341724;26;20005;-58
2024/05/01 07:38:37;;;;;;;3.40;2.10;;;;;;;20.01;51.04;95321.09;5340723;26;20104;-60
2024/05/01 07:41:02;;;;;;;6.57;2.45;;;;;;;20.75;49.90;95327.22;5340841;26;20494;-58
2024/05/01 07:43:27;;;;;;;3.75;2.50;;;;;;;20.48;50.41;95321.44;5338358;26;20444;-60
2024/05/01 07:45:53;;;;;;;6.18;2.22;;;;;;;20.64;49.84;95316.16;5331811;26;20009;-59
2024/05/01 07:48:18;;;;;;;2.90;1.80;;;;;;;20.82;50.13;95315.91;5341073;26;20013;-58
2024/05/01 07:50:43;;;;;;;4.75;2.35;;;;;;;21.31;48.53;95315.75;5339622;26;20468;-58
2024/05/01 07:53:10;;;;;;;2.88;1.88;;;;;;;21.86;47.74;95314.09;5341148;26;20017;-58
2024/05/01 07:55:36;;;;;;;4.05;2.17;;;;;;;22.30;48.24;95316.72;5342235;26;20020;-59
2024/05/01 07:58:03;;;;;;;3.35;1.70;;;;;;;22.35;47.03;95311.06;5341432;26;20020;-58
2024/05/01 08:00:29;;;;;;;5.28;2.42;;;;;;;22.68;45.33;95314.09;5344978;26;20371;-59
2024/05/01 08:02:55;;;;;;;2.13;1.58;;;;;;;22.40;46.18;95321.53;5342263;26;20403;-59
2024/05/01 08:05:20;;;;;;;3.85;1.92;;;;;;;22.51;46.28;95314.47;5340373;26;20013;-58
2024/05/01 08:07:49;;;;;;;4.18;1.98;;;;;;;22.83;46.66;95311.72;5338697;26;20009;-60
2024/05/01 08:10:15;;;;;;;5.32;1.67;;;;;;;22.63;45.88;95314.38;5335857;26;20013;-59
2024/05/01 08:12:41;;;;;;;4.60;2.25;;;;;;;22.96;46.25;95305.09;5340867;26;20013;-60
2024/05/01 08:15:06;;;;;;;2.10;1.80;;;;;;;22.94;45.13;95312.72;5340892;26;20330;-61
2024/05/01 08:17:32;;;;;;;10.27;2.55;;;;;;;23.10;47.20;95305.38;5342073;26;20086;-60
2024/05/01 08:19:57;;;;;;;2.88;2.20;;;;;;;22.96;44.68;95300.50;5341324;26;20020;-61
2024/05/01 08:22:22;;;;;;;3.60;2.35;;;;;;;22.90;44.61;95301.13;5341244;26;20021;-59
2024/05/01 08:24:48;;;;;;;7.63;2.25;;;;;;;22.37;45.76;95306.09;5340780;26;20020;-59
2024/05/01 08:27:13;;;;;;;3.95;2.10;;;;;;;22.21;46.58;95293.47;5341695;26;20021;-62
2024/05/01 08:29:39;;;;;;;2.90;2.10;;;;;;;22.41;46.10;95301.59;5341565;26;20009;-60
2024/05/01 08:32:04;;;;;;;3.75;1.73;;;;;;;22.51;46.42;95301.81;5340228;26;20053;-59
2024/05/01 08:34:29;;;;;;;6.85;2.42;;;;;;;22.20;45.40;95297.28;5341456;26;20357;-61
2024/05/01 08:36:55;;;;;;;3.97;2.17;;;;;;;22.26;46.48;95279.00;5341368;26;20382;-60
2024/05/01 08:39:20;;;;;;;3.25;2.15;;;;;;;22.03;45.92;95282.28;5341284;26;20460;-59
2024/05/01 08:41:47;;;;;;;3.33;2.10;;;;;;;22.66;46.95;95280.59;5340267;26;20111;-60
2024/05/01 08:44:13;;;;;;;3.72;2.08;;;;;;;23.12;45.96;95283.50;5341090;26;20283;-64
2024/05/01 08:46:40;;;;;;;5.00;1.83;;;;;;;23.10;44.27;95283.09;5332903;26;20009;-60
2024/05/01 08:49:08;;;;;;;5.50;2.35;;;;;;;23.14;43.35;95275.81;5341607;26;20009;-60
2024/05/01 08:51:34;;;;;;;4.13;2.20;;;;;;;22.88;44.30;95277.22;5339914;26;20432;-60
2024/05/01 08:54:00;;;;;;;11.32;2.33;;;;;;;23.22;43.43;95275.63;5341267;26;20009;-59
2024/05/01 08:56:26;;;;;;;6.05;2.00;;;;;;;23.46;42.81;95279.91;5339056;26;20028;-59
2024/05/01 08:58:52;;;;;;;3.67;2.00;;;;;;;23.93;43.89;95280.72;5331548;26;20029;-61
2024/05/01 09:01:18;;;;;;;5.82;1.90;;;;;;;24.18;42.37;95276.47;5336905;26;20008;-61
2024/05/01 09:03:44;;;;;;;3.47;1.50;;;;;;;24.68;42.26;95279.91;5340810;26;20673;-60
2024/05/01 09:06:16;;;;;;;7.63;2.17;;;;;;;24.86;41.25;95276.66;5340914;26;20045;-61
2024/05/01 09:08:45;;;;;;;3.67;2.15;;;;;;;25.27;40.63;95275.63;5340276;26;20005;-60
2024/05/01 09:11:11;;;;;;;6.68;2.17;;;;;;;25.26;41.46;95276.00;5340483;26;20367;-62
2024/05/01 09:13:48;;;;;;;4.25;2.20;;;;;;;25.39;39.89;95271.09;5339311;26;20009;-59
2024/05/01 09:16:14;;;;;;;5.43;2.22;;;;;;;25.49;39.82;95265.81;5341122;26;20045;-59
2024/05/01 09:18:39;;;;;;;2.90;2.15;;;;;;;25.38;40.42;95266.84;5339833;26;20013;-61
2024/05/01 09:21:04;;;;;;;2.57;2.10;;;;;;;25.38;39.74;95269.56;5338466;26;20016;-60
2024/05/01 09:23:30;;;;;;;5.90;2.50;;;;;;;25.43;39.48;95269.22;5339384;26;20697;-60
2024/05/01 09:25:55;;;;;;;4.00;2.15;;;;;;;25.40;40.35;95267.28;5340287;26;20082;-61
2024/05/01 09:28:20;;;;;;;5.95;2.25;;;;;;;24.75;42.59;95265.72;5338691;26;20056;-59
2024/05/01 09:30:46;;;;;;;7.13;2.03;;;;;;;25.30;40.82;95255.22;5340564;26;20009;-60
2024/05/01 09:33:11;;;;;;;6.30;2.35;;;;;;;25.22;40.79;95267.84;5339807;26;20247;-61
2024/05/01 09:35:37;;;;;;;6.25;2.08;;;;;;;25.36;40.63;95269.16;5340856;26;20618;-60
2024/05/01 09:38:15;;;;;;;6.22;2.28;;;;;;;25.60;39.74;95260.50;5339847;26;20534;-60
2024/05/01 09:40:41;;;;;;;6.07;2.38;;;;;;;25.95;40.05;95254.66;5339531;26;20402;-60
2024/05/01 09:43:16;;;;;;;9.80;2.63;;;;;;;25.88;39.45;95257.31;5340292;26;20020;-64
2024/05/01 09:45:43;;;;;;;2.75;2.13;;;;;;;26.02;39.07;95259.34;5339363;26;20020;-59
2024/05/01 09:48:10;;;;;;;5.30;2.10;;;;;;;25.97;39.30;95257.00;5339699;26;20460;-60
2024/05/01 09:50:36;;;;;;;5.32;2.15;;;;;;;25.65;39.57;95246.66;5339986;26;20017;-61
2024/05/01 09:53:03;;;;;;;2.78;1.92;;;;;;;25.88;39.94;95256.53;5339537;26;20435;-61
2024/05/01 09:55:29;;;;;;;7.88;1.95;;;;;;;26.20;39.71;95245.94;5338455;26;20052;-60
2024/05/01 09:57:55;;;;;;;2.83;1.85;;;;;;;26.60;39.22;95245.06;5339999;26;20004;-60
2024/05/01 10:00:20;;;;;;;3.65;1.88;;;;;;;26.71;37.45;95240.47;5338244;26;20024;-60
2024/05/01 10:02:47;;;;;;;3.15;1.85;;;;;;;27.14;37.19;95239.88;5339623;26;20009;-60
2024/05/01 10:05:14;;;;;;;4.90;2.20;;;;;;;26.12;37.91;95222.72;5338498;26;20005;-59
2024/05/01 10:07:41;;;;;;;4.63;2.10;;;;;;;26.57;36.77;95224.16;5337327;26;20537;-59
2024/05/01 10:10:07;;;;;;;4.38;1.75;;;;;;;27.01;36.99;95220.44;5337926;26;20102;-63
2024/05/01 10:12:52;;;;;;;4.90;2.08;;;;;;;27.26;37.00;95225.94;5337050;26;20017;-61
2024/05/01 10:15:37;;;;;;;6.85;1.77;;;;;;;27.95;36.72;95219.47;5335030;26;20060;-60
2024/05/01 10:18:10;;;;;;;3.85;2.10;;;;;;;28.06;36.46;95202.00;5337883;26;20019;-63
2024/05/01 10:20:50;;;;;;;6.05;2.25;;;;;;;28.16;35.00;95205.84;5337077;26;20051;-59
2024/05/01 10:23:28;;;;;;;3.30;1.80;;;;;;;28.41;34.72;95199.63;5336284;26;20016;-59
2024/05/01 10:26:00;;;;;;;4.38;2.40;;;;;;;28.58;36.38;95193.38;5333504;26;20005;-61
2024/05/01 10:28:30;;;;;;;4.55;1.88;;;;;;;28.28;34.54;95186.47;5336524;26;20056;-60
2024/05/01 10:30:59;;;;;;;2.63;1.45;;;;;;;28.45;33.07;95179.44;5336337;26;20016;-62
2024/05/01 10:33:36;;;;;;;4.15;1.67;;;;;;;28.86;32.48;95182.38;5333851;26;20009;-60
2024/05/01 10:36:20;;;;;;;3.28;1.70;;;;;;;29.01;33.29;95182.34;5339523;26;20001;-61
2024/05/01 10:38:47;;;;;;;5.57;2.00;;;;;;;28.12;33.64;95178.75;5337094;26;20019;-64
2024/05/01 10:41:24;;;;;;;3.28;1.75;;;;;;;28.35;33.40;95170.19;5338985;26;20009;-60
2024/05/01 10:43:54;;;;;;;4.90;1.65;;;;;;;28.78;33.25;95169.22;5338864;26;20016;-63
2024/05/01 10:46:19;;;;;;;3.85;1.67;;;;;;;29.30;33.27;95167.41;5339834;26;20017;-60
2024/05/01 10:48:45;;;;;;;3.47;1.33;;;;;;;29.32;33.72;95167.78;5337649;26;20360;-61
2024/05/01 10:51:12;;;;;;;2.78;1.50;;;;;;;29.63;32.66;95162.53;5339412;26;20074;-61
2024/05/01 10:53:38;;;;;;;3.80;1.63;;;;;;;27.53;33.87;95155.94;5337765;26;20081;-62
2024/05/01 10:56:04;;;;;;;2.33;1.60;;;;;;;27.72;34.35;95147.44;5339327;26;20005;-62
2024/05/01 10:58:30;;;;;;;6.18;2.15;;;;;;;28.45;35.44;95151.53;5337064;26;20472;-62
2024/05/01 11:00:58;;;;;;;2.13;1.50;;;;;;;28.69;34.17;95142.50;5348081;26;20494;-60
2024/05/01 11:03:23;;;;;;;2.25;1.73;;;;;;;28.34;32.40;95146.16;5338498;26;20232;-61
2024/05/01 11:05:49;;;;;;;2.83;1.55;;;;;;;29.17;32.52;95141.88;5338093;26;20005;-62
2024/05/01 11:08:25;;;;;;;4.80;1.90;;;;;;;29.20;32.25;95135.66;5337755;26;20365;-60
2024/05/01 11:10:52;;;;;;;4.15;1.60;;;;;;;29.57;31.94;95135.00;5329020;26;20500;-62
2024/05/01 11:13:17;;;;;;;9.25;1.77;;;;;;;30.13;31.52;95132.16;5338298;26;20005;-61
2024/05/01 11:15:43;;;;;;;3.10;1.70;;;;;;;29.68;31.77;95134.13;5337810;26;20020;-62
2024/05/01 11:18:11;;;;;;;2.90;1.65;;;;;;;29.77;31.81;95140.66;5338440;26;20013;-60
2024/05/01 11:20:37;;;;;;;6.70;1.88;;;;;;;29.93;32.18;95125.72;5338941;26;20019;-62
2024/05/01 11:23:05;;;;;;;2.45;1.70;;;;;;;30.27;31.98;95123.81;5342538;26;20009;-62
2024/05/01 11:25:31;;;;;;;5.32;1.60;;;;;;;30.51;32.00;95116.53;5341116;26;20003;-66